createdAt,value
2023-02-20T00:02:15.382Z,1.30
2023-02-20T00:04:44.162Z,1.20
2023-02-20T00:07:12.915Z,1.07
2023-02-20T00:09:41.788Z,1.30
2023-02-20T00:12:10.674Z,1.95
2023-02-20T00:14:39.613Z,1.60
2023-02-20T00:17:08.368Z,1.40
2023-02-20T00:19:38.561Z,1.30
2023-02-20T00:22:07.481Z,1.38
2023-02-20T00:24:36.244Z,1.30
2023-02-20T00:27:05.340Z,1.30
2023-02-20T00:29:34.655Z,1.13
2023-02-20T00:32:03.504Z,1.03
2023-02-20T00:34:32.254Z,1.20
2023-02-20T00:37:02.461Z,1.30
2023-02-20T00:39:32.516Z,1.42
2023-02-20T00:42:01.539Z,1.10
2023-02-20T00:44:30.532Z,1.30
2023-02-20T00:46:59.346Z,1.27
2023-02-20T00:49:28.252Z,1.40
2023-02-20T00:51:56.985Z,1.20
2023-02-20T00:54:27.113Z,1.02
2023-02-20T00:56:55.845Z,0.80
2023-02-20T00:59:24.608Z,1.10
2023-02-20T01:01:53.395Z,0.97
2023-02-20T01:04:22.335Z,1.23
2023-02-20T01:06:51.061Z,0.90
2023-02-20T01:09:20.176Z,1.08
2023-02-20T01:11:50.378Z,0.90
2023-02-20T01:14:19.291Z,1.10
2023-02-20T01:16:51.370Z,0.97
2023-02-20T01:19:20.709Z,1.10
2023-02-20T01:21:49.829Z,1.20
2023-02-20T01:24:19.950Z,1.10
2023-02-20T01:26:51.465Z,1.02
2023-02-20T01:29:20.259Z,1.00
2023-02-20T01:31:51.223Z,1.00
2023-02-20T01:34:22.852Z,1.30
2023-02-20T01:36:53.374Z,1.47
2023-02-20T01:39:24.652Z,0.97
2023-02-20T01:42:00.285Z,1.00
2023-02-20T01:44:32.870Z,1.20
2023-02-20T01:47:03.060Z,1.10
2023-02-20T01:49:41.748Z,1.27
2023-02-20T01:52:16.948Z,1.00
2023-02-20T01:54:54.045Z,1.15
2023-02-20T01:57:29.751Z,1.20
2023-02-20T02:00:05.866Z,1.17
2023-02-20T02:02:40.635Z,1.43
2023-02-20T02:05:12.602Z,1.15
2023-02-20T02:07:42.040Z,0.90
2023-02-20T02:10:15.463Z,1.00
2023-02-20T02:12:51.008Z,1.20
2023-02-20T02:15:23.482Z,1.20
2023-02-20T02:18:21.766Z,1.10
2023-02-20T02:21:39.323Z,1.00
2023-02-20T02:24:51.959Z,0.93
2023-02-20T02:28:04.853Z,0.93
2023-02-20T02:31:07.979Z,0.85
2023-02-20T02:34:19.974Z,0.90
2023-02-20T02:37:13.005Z,1.07
2023-02-20T02:39:50.869Z,1.20
2023-02-20T02:42:30.658Z,0.98
2023-02-20T02:45:11.115Z,1.30
2023-02-20T02:47:50.458Z,1.60
2023-02-20T02:50:25.180Z,1.98
2023-02-20T02:52:57.000Z,2.30
2023-02-20T02:55:28.833Z,1.80
2023-02-20T02:57:58.023Z,1.85
2023-02-20T03:00:31.239Z,1.70
2023-02-20T03:03:07.778Z,1.50
2023-02-20T03:05:47.610Z,1.40
2023-02-20T03:08:37.096Z,1.30
2023-02-20T03:11:09.417Z,0.80
2023-02-20T03:14:01.598Z,1.10
2023-02-20T03:16:42.714Z,1.10
2023-02-20T03:19:15.665Z,1.30
2023-02-20T03:21:49.651Z,1.10
2023-02-20T03:24:24.213Z,1.10
2023-02-20T03:26:57.053Z,1.47
2023-02-20T03:29:34.649Z,1.67
2023-02-20T03:32:26.105Z,1.38
2023-02-20T03:35:15.003Z,1.73
2023-02-20T03:38:04.374Z,1.88
2023-02-20T03:40:52.821Z,1.80
2023-02-20T03:43:23.074Z,1.90
2023-02-20T03:45:54.534Z,1.50
2023-02-20T03:48:31.974Z,1.80
2023-02-20T03:51:13.060Z,1.73
2023-02-20T03:53:44.119Z,1.50
2023-02-20T03:56:20.570Z,1.70
2023-02-20T03:58:57.173Z,1.67
2023-02-20T04:01:28.568Z,1.55
2023-02-20T04:03:59.681Z,1.70
2023-02-20T04:06:34.315Z,1.47
2023-02-20T04:09:08.253Z,1.80
2023-02-20T04:11:45.016Z,1.90
2023-02-20T04:14:17.400Z,1.57
2023-02-20T04:16:51.533Z,1.87
2023-02-20T04:19:20.915Z,1.93
2023-02-20T04:21:55.983Z,1.65
2023-02-20T04:24:32.239Z,1.67
2023-02-20T04:27:03.076Z,1.83
2023-02-20T04:29:31.887Z,1.60
2023-02-20T04:32:00.787Z,1.90
2023-02-20T04:34:29.942Z,2.13
2023-02-20T04:37:09.539Z,1.87
2023-02-20T04:39:38.742Z,1.47
2023-02-20T04:42:09.271Z,1.70
2023-02-20T04:44:40.007Z,1.87
2023-02-20T04:47:13.992Z,1.80
2023-02-20T04:49:42.723Z,1.50
2023-02-20T04:52:11.526Z,1.63
2023-02-20T04:54:40.351Z,1.80
2023-02-20T04:57:10.478Z,1.83
2023-02-20T04:59:39.202Z,1.60
2023-02-20T05:02:10.053Z,1.30
2023-02-20T05:04:39.144Z,1.77
2023-02-20T05:07:08.052Z,1.85
2023-02-20T05:09:36.737Z,1.80
2023-02-20T05:12:06.370Z,1.90
2023-02-20T05:14:36.656Z,1.70
2023-02-20T05:17:05.568Z,1.88
2023-02-20T05:19:34.302Z,1.75
2023-02-20T05:22:20.036Z,1.77
2023-02-20T05:24:53.174Z,1.70
2023-02-20T05:27:24.576Z,1.70
2023-02-20T05:29:58.112Z,1.90
2023-02-20T05:32:29.747Z,1.83
2023-02-20T05:34:59.338Z,2.13
2023-02-20T05:37:29.479Z,1.87
2023-02-20T05:39:58.212Z,1.90
2023-02-20T05:42:27.006Z,2.10
2023-02-20T05:44:57.099Z,1.73
2023-02-20T05:47:25.894Z,2.00
2023-02-20T05:49:54.631Z,1.83
2023-02-20T05:52:23.381Z,1.70
2023-02-20T05:54:52.093Z,2.37
2023-02-20T05:57:20.898Z,2.10
2023-02-20T05:59:49.798Z,1.80
2023-02-20T06:02:19.955Z,1.80
2023-02-20T06:04:48.772Z,2.87
2023-02-20T06:07:17.667Z,3.20
2023-02-20T06:09:46.829Z,2.10
2023-02-20T06:12:15.661Z,2.20
2023-02-20T06:14:44.416Z,2.07
2023-02-20T06:17:13.504Z,2.17
2023-02-20T06:19:43.674Z,2.27
2023-02-20T06:22:12.500Z,2.13
2023-02-20T06:24:41.394Z,1.87
2023-02-20T06:27:10.205Z,2.10
2023-02-20T06:29:39.025Z,1.90
2023-02-20T06:32:08.067Z,2.17
2023-02-20T06:34:36.926Z,2.30
2023-02-20T06:37:07.582Z,2.60
2023-02-20T06:39:36.405Z,2.47
2023-02-20T06:42:05.613Z,2.80
2023-02-20T06:44:34.417Z,2.47
2023-02-20T06:47:03.330Z,2.80
2023-02-20T06:49:32.140Z,2.93
2023-02-20T06:52:03.145Z,2.60
2023-02-20T06:54:34.864Z,4.60
2023-02-20T06:57:03.662Z,3.40
2023-02-20T06:59:49.957Z,2.77
2023-02-20T07:02:19.105Z,3.00
2023-02-20T07:04:51.072Z,3.53
2023-02-20T07:07:19.903Z,3.53
2023-02-20T07:09:50.126Z,2.80
2023-02-20T07:12:19.126Z,3.00
2023-02-20T07:14:48.006Z,3.30
2023-02-20T07:17:17.069Z,2.80
2023-02-20T07:19:45.806Z,3.30
2023-02-20T07:22:14.694Z,2.70
2023-02-20T07:24:43.584Z,2.97
2023-02-20T07:27:14.127Z,3.30
2023-02-20T07:29:42.897Z,4.87
2023-02-20T07:32:11.626Z,4.00
2023-02-20T07:34:42.066Z,4.10
2023-02-20T07:37:13.514Z,2.40
2023-02-20T07:39:42.582Z,2.63
2023-02-20T07:42:12.855Z,2.53
2023-02-20T07:44:41.652Z,2.30
2023-02-20T07:47:10.405Z,4.27
2023-02-20T07:49:39.251Z,3.47
2023-02-20T07:52:08.067Z,3.47
2023-02-20T07:54:36.886Z,3.07
2023-02-20T07:57:05.808Z,2.22
2023-02-20T07:59:36.219Z,2.33
2023-02-20T08:02:05.005Z,2.50
2023-02-20T08:04:33.850Z,2.47
2023-02-20T08:07:02.620Z,2.03
2023-02-20T08:09:31.471Z,5.20
2023-02-20T08:12:00.214Z,7.90
2023-02-20T08:14:29.628Z,6.00
2023-02-20T08:16:59.741Z,3.30
2023-02-20T08:19:28.649Z,2.13
2023-02-20T08:21:57.440Z,2.97
2023-02-20T08:24:26.234Z,2.50
2023-02-20T08:26:55.410Z,2.57
2023-02-20T08:29:25.026Z,2.60
2023-02-20T08:31:53.905Z,3.22
2023-02-20T08:34:24.519Z,2.63
2023-02-20T08:36:53.366Z,2.60
2023-02-20T08:39:22.332Z,2.45
2023-02-20T08:41:51.115Z,2.47
2023-02-20T08:44:20.051Z,2.97
2023-02-20T08:46:50.001Z,3.05
2023-02-20T08:49:21.650Z,2.67
2023-02-20T08:51:57.021Z,2.85
2023-02-20T08:54:25.951Z,2.90
2023-02-20T08:56:54.735Z,2.83
2023-02-20T08:59:23.561Z,2.90
2023-02-20T09:01:52.543Z,2.90
2023-02-20T09:04:22.255Z,2.85
2023-02-20T09:06:52.468Z,3.58
2023-02-20T09:09:21.316Z,4.88
2023-02-20T09:11:50.200Z,4.20
2023-02-20T09:14:19.263Z,3.78
2023-02-20T09:16:48.369Z,3.22
2023-02-20T09:19:18.057Z,4.47
2023-02-20T09:21:47.973Z,6.15
2023-02-20T09:24:18.512Z,4.18
2023-02-20T09:26:47.349Z,3.88
2023-02-20T09:29:16.115Z,4.35
2023-02-20T09:31:44.951Z,5.18
2023-02-20T09:34:13.831Z,3.97
2023-02-20T09:36:42.547Z,4.45
2023-02-20T09:39:11.349Z,5.00
2023-02-20T09:42:06.730Z,4.28
2023-02-20T09:44:48.008Z,3.90
2023-02-20T09:47:45.392Z,3.45
2023-02-20T09:50:19.664Z,2.97
2023-02-20T09:52:59.700Z,3.30
2023-02-20T09:55:37.329Z,2.67
2023-02-20T09:58:18.351Z,3.00
2023-02-20T10:00:49.131Z,2.40
2023-02-20T10:03:30.724Z,2.72
2023-02-20T10:05:59.811Z,2.40
2023-02-20T10:08:28.727Z,3.00
2023-02-20T10:11:03.875Z,2.83
2023-02-20T10:13:56.321Z,2.72
2023-02-20T10:16:38.631Z,3.20
2023-02-20T10:19:24.179Z,3.42
2023-02-20T10:22:05.078Z,3.10
2023-02-20T10:24:54.178Z,3.10
2023-02-20T10:27:37.311Z,3.55
2023-02-20T10:30:12.136Z,3.17
2023-02-20T10:32:50.320Z,2.83
2023-02-20T10:35:26.627Z,2.72
2023-02-20T10:38:01.533Z,3.10
2023-02-20T10:40:38.794Z,3.22
2023-02-20T10:43:21.083Z,2.80
2023-02-20T10:46:05.095Z,2.60
2023-02-20T10:48:37.186Z,3.70
2023-02-20T10:51:11.965Z,3.80
2023-02-20T10:53:48.843Z,4.38
2023-02-20T10:56:23.730Z,4.40
2023-02-20T10:59:04.153Z,3.65
2023-02-20T11:01:38.624Z,3.30
2023-02-20T11:04:14.983Z,3.10
2023-02-20T11:06:51.214Z,2.50
2023-02-20T11:09:20.310Z,2.42
2023-02-20T11:11:49.898Z,2.65
2023-02-20T11:14:39.309Z,2.60
2023-02-20T11:17:15.520Z,2.60
2023-02-20T11:19:49.070Z,2.97
2023-02-20T11:22:20.359Z,2.85
2023-02-20T11:24:49.649Z,2.97
2023-02-20T11:27:21.997Z,3.00
2023-02-20T11:29:56.350Z,2.60
2023-02-20T11:32:36.320Z,2.67
2023-02-20T11:35:33.021Z,2.38
2023-02-20T11:38:37.292Z,2.92
2023-02-20T11:41:29.267Z,2.50
2023-02-20T11:44:26.108Z,2.40
2023-02-20T11:47:26.976Z,2.03
2023-02-20T11:53:05.401Z,3.78
2023-02-20T11:55:35.393Z,5.15
2023-02-20T11:58:05.100Z,2.65
2023-02-20T12:00:47.945Z,2.15
2023-02-20T12:03:23.943Z,2.15
2023-02-20T12:05:53.532Z,1.92
2023-02-20T12:08:53.724Z,2.00
2023-02-20T12:11:27.586Z,2.03
2023-02-20T12:14:00.948Z,2.08
2023-02-20T12:17:04.032Z,2.22
2023-02-20T12:19:51.613Z,1.70
2023-02-20T12:22:31.694Z,2.90
2023-02-20T12:25:26.300Z,2.10
2023-02-20T12:28:10.361Z,1.60
2023-02-20T12:31:01.353Z,2.30
2023-02-20T12:34:21.882Z,1.70
2023-02-20T12:37:01.835Z,1.90
2023-02-20T12:39:42.463Z,1.80
2023-02-20T12:42:27.852Z,2.83
2023-02-20T12:45:24.387Z,2.85
2023-02-20T12:48:19.208Z,2.25
2023-02-20T12:51:06.260Z,2.15
2023-02-20T12:53:56.358Z,1.88
2023-02-20T12:56:40.818Z,1.70
2023-02-20T12:59:27.761Z,2.22
2023-02-20T13:01:57.709Z,2.05
2023-02-20T13:04:34.657Z,2.00
2023-02-20T13:07:11.863Z,1.80
2023-02-20T13:09:47.343Z,1.80
2023-02-20T13:12:18.380Z,1.90
2023-02-20T13:15:26.367Z,2.75
2023-02-20T13:18:06.417Z,1.85
2023-02-20T13:20:44.616Z,1.55
2023-02-20T13:23:31.433Z,2.95
2023-02-20T13:26:00.399Z,2.30
2023-02-20T13:28:43.290Z,1.85
2023-02-20T13:31:18.411Z,1.95
2023-02-20T13:33:50.234Z,1.63
2023-02-20T13:36:41.488Z,2.47
2023-02-20T13:39:47.119Z,1.77
2023-02-20T13:42:36.716Z,1.85
2023-02-20T13:45:44.482Z,1.50
2023-02-20T13:48:39.219Z,1.67
2023-02-20T13:51:36.850Z,1.23
2023-02-20T13:54:35.569Z,1.45
2023-02-20T13:57:19.728Z,1.90
2023-02-20T13:59:52.096Z,1.55
2023-02-20T14:02:29.583Z,3.05
2023-02-20T14:05:03.251Z,1.75
2023-02-20T14:07:38.595Z,1.90
2023-02-20T14:10:16.402Z,1.38
2023-02-20T14:12:46.520Z,1.33
2023-02-20T14:15:15.410Z,1.50
2023-02-20T14:17:45.040Z,1.25
2023-02-20T14:20:24.668Z,1.60
2023-02-20T14:23:10.858Z,1.17
2023-02-20T14:25:41.216Z,1.40
2023-02-20T14:28:17.071Z,1.55
2023-02-20T14:30:45.856Z,1.42
2023-02-20T14:33:27.767Z,1.50
2023-02-20T14:36:18.911Z,1.60
2023-02-20T14:39:32.419Z,1.38
2023-02-20T14:42:04.367Z,1.60
2023-02-20T14:44:34.598Z,2.00
2023-02-20T14:47:13.074Z,1.80
2023-02-20T14:49:42.216Z,1.85
2023-02-20T14:52:22.702Z,2.55
2023-02-20T14:55:01.151Z,1.70
2023-02-20T14:57:30.955Z,1.85
2023-02-20T15:00:24.314Z,1.27
2023-02-20T15:02:57.367Z,1.35
2023-02-20T15:05:33.074Z,1.60
2023-02-20T15:08:23.385Z,1.50
2023-02-20T15:10:54.933Z,1.25
2023-02-20T15:13:27.554Z,1.58
2023-02-20T15:16:09.224Z,1.30
2023-02-20T15:18:41.050Z,1.35
2023-02-20T15:21:10.896Z,1.38
2023-02-20T15:23:43.796Z,1.20
2023-02-20T15:26:35.099Z,2.83
2023-02-20T15:29:21.695Z,2.83
2023-02-20T15:31:59.161Z,1.30
2023-02-20T15:34:31.371Z,1.40
2023-02-20T15:37:00.265Z,1.05
2023-02-20T15:39:30.426Z,1.30
2023-02-20T15:42:00.768Z,1.27
2023-02-20T15:44:31.059Z,1.20
2023-02-20T15:47:00.869Z,1.70
2023-02-20T15:49:29.593Z,7.30
2023-02-20T15:52:07.786Z,1.13
2023-02-20T15:54:39.651Z,5.13
2023-02-20T15:57:18.023Z,4.40
2023-02-20T15:59:47.473Z,1.27
2023-02-20T16:02:21.376Z,2.03
2023-02-20T16:04:52.483Z,1.10
2023-02-20T16:07:22.538Z,1.30
2023-02-20T16:09:52.727Z,1.15
2023-02-20T16:12:29.070Z,1.10
2023-02-20T16:14:59.356Z,1.05
2023-02-20T16:17:32.301Z,1.30
2023-02-20T16:20:01.739Z,1.15
2023-02-20T16:22:30.745Z,1.40
2023-02-20T16:25:00.977Z,1.23
2023-02-20T16:27:31.118Z,0.90
2023-02-20T16:30:00.367Z,0.95
2023-02-20T16:32:30.559Z,1.02
2023-02-20T16:35:02.121Z,0.98
2023-02-20T16:37:31.477Z,1.58
2023-02-20T16:40:01.561Z,2.53
2023-02-20T16:42:34.830Z,1.40
2023-02-20T16:45:08.138Z,1.33
2023-02-20T16:47:36.978Z,1.10
2023-02-20T16:50:08.193Z,1.30
2023-02-20T16:52:39.532Z,1.23
2023-02-20T16:55:21.958Z,1.30
2023-02-20T16:57:51.163Z,5.68
2023-02-20T17:00:22.720Z,2.00
2023-02-20T17:02:51.429Z,1.08
2023-02-20T17:05:21.345Z,1.10
2023-02-20T17:07:50.464Z,1.50
2023-02-20T17:10:20.928Z,1.42
2023-02-20T17:12:50.456Z,1.20
2023-02-20T17:15:22.470Z,0.95
2023-02-20T17:17:51.653Z,1.35
2023-02-20T17:20:24.372Z,1.08
2023-02-20T17:23:04.745Z,1.10
2023-02-20T17:25:36.001Z,1.10
2023-02-20T17:28:06.254Z,1.20
2023-02-20T17:30:35.164Z,1.77
2023-02-20T17:33:04.009Z,1.08
2023-02-20T17:35:32.777Z,1.30
2023-02-20T17:38:01.680Z,1.10
2023-02-20T17:40:30.536Z,1.25
2023-02-20T17:43:00.697Z,1.10
2023-02-20T17:45:29.635Z,1.40
2023-02-20T17:47:58.481Z,1.40
2023-02-20T17:50:27.637Z,1.40
2023-02-20T17:52:56.730Z,1.08
2023-02-20T17:55:28.152Z,1.05
2023-02-20T17:57:57.666Z,1.30
2023-02-20T18:00:28.436Z,1.10
2023-02-20T18:02:57.682Z,1.10
2023-02-20T18:05:26.815Z,0.93
2023-02-20T18:07:55.585Z,0.95
2023-02-20T18:10:24.379Z,1.58
2023-02-20T18:13:03.826Z,1.33
2023-02-20T18:15:37.793Z,0.88
2023-02-20T18:18:07.312Z,1.20
2023-02-20T18:20:36.679Z,1.50
2023-02-20T18:23:05.711Z,1.30
2023-02-20T18:25:40.791Z,0.90
2023-02-20T18:28:11.121Z,1.20
2023-02-20T18:30:42.158Z,1.33
2023-02-20T18:33:11.482Z,1.10
2023-02-20T18:35:40.560Z,1.60
2023-02-20T18:38:09.982Z,1.73
2023-02-20T18:40:38.960Z,2.30
2023-02-20T18:43:08.559Z,1.45
2023-02-20T18:45:37.417Z,2.80
2023-02-20T18:48:08.724Z,1.42
2023-02-20T18:50:37.788Z,5.72
2023-02-20T18:53:06.714Z,4.55
2023-02-20T18:55:35.538Z,1.95
2023-02-20T18:58:04.437Z,1.20
2023-02-20T19:00:34.700Z,1.77
2023-02-20T19:03:04.513Z,2.60
2023-02-20T19:05:34.938Z,2.72
2023-02-20T19:08:05.419Z,2.55
2023-02-20T19:10:34.614Z,2.58
2023-02-20T19:13:04.017Z,2.40
2023-02-20T19:15:32.707Z,2.50
2023-02-20T19:18:01.423Z,7.28
2023-02-20T19:20:31.800Z,3.83
2023-02-20T19:23:04.499Z,3.25
2023-02-20T19:25:33.308Z,2.55
2023-02-20T19:28:02.086Z,1.85
2023-02-20T19:30:31.119Z,1.50
2023-02-20T19:32:59.902Z,1.80
2023-02-20T19:35:28.611Z,2.10
2023-02-20T19:37:57.438Z,1.80
2023-02-20T19:40:28.991Z,2.28
2023-02-20T19:42:57.750Z,1.70
2023-02-20T19:45:26.518Z,1.30
2023-02-20T19:47:55.596Z,1.60
2023-02-20T19:50:28.668Z,1.88
2023-02-20T19:52:57.539Z,1.35
2023-02-20T19:55:28.468Z,2.05
2023-02-20T19:57:57.269Z,1.70
2023-02-20T20:00:28.687Z,1.95
2023-02-20T20:02:58.348Z,1.63
2023-02-20T20:05:28.522Z,1.70
2023-02-20T20:07:57.481Z,1.60
2023-02-20T20:10:30.211Z,1.65
2023-02-20T20:12:59.062Z,1.45
2023-02-20T20:15:29.198Z,1.60
2023-02-20T20:18:00.675Z,1.75
2023-02-20T20:20:31.987Z,1.30
2023-02-20T20:23:05.563Z,1.60
2023-02-20T20:25:36.354Z,1.70
2023-02-20T20:28:07.507Z,7.93
2023-02-20T20:30:38.584Z,3.50
2023-02-20T20:33:08.486Z,2.72
2023-02-20T20:35:37.503Z,1.80
2023-02-20T20:38:06.328Z,1.55
2023-02-20T20:40:36.726Z,1.85
2023-02-20T20:43:07.453Z,1.60
2023-02-20T20:45:36.259Z,1.48
2023-02-20T20:48:05.118Z,1.48
2023-02-20T20:50:33.912Z,1.83
2023-02-20T20:53:03.654Z,2.30
2023-02-20T20:55:34.089Z,1.85
2023-02-20T20:58:04.258Z,1.25
2023-02-20T21:00:35.906Z,1.77
2023-02-20T21:03:08.895Z,2.15
2023-02-20T21:05:38.559Z,1.50
2023-02-20T21:08:08.300Z,1.77
2023-02-20T21:10:38.229Z,2.97
2023-02-20T21:13:08.530Z,1.70
2023-02-20T21:15:37.412Z,2.40
2023-02-20T21:18:07.628Z,2.38
2023-02-20T21:20:36.525Z,2.20
2023-02-20T21:23:06.746Z,2.72
2023-02-20T21:25:35.687Z,1.40
2023-02-20T21:28:04.485Z,1.50
2023-02-20T21:30:35.054Z,1.60
2023-02-20T21:33:03.992Z,1.80
2023-02-20T21:35:32.788Z,1.85
2023-02-20T21:38:01.560Z,1.65
2023-02-20T21:40:30.371Z,1.55
2023-02-20T21:43:17.309Z,1.98
2023-02-20T21:45:49.840Z,2.08
2023-02-20T21:48:18.984Z,1.85
2023-02-20T21:50:47.969Z,1.35
2023-02-20T21:53:16.996Z,1.60
2023-02-20T21:55:46.766Z,1.65
2023-02-20T21:58:15.808Z,1.50
2023-02-20T22:00:43.431Z,1.55
2023-02-20T22:03:12.387Z,1.40
2023-02-20T22:05:40.032Z,1.42
2023-02-20T22:08:25.813Z,1.60
2023-02-20T22:11:12.536Z,1.48
2023-02-20T22:13:58.823Z,1.48
2023-02-20T22:16:44.832Z,1.70
2023-02-20T22:19:33.015Z,1.58
2023-02-20T22:22:20.174Z,1.70
2023-02-20T22:25:06.454Z,1.90
2023-02-20T22:27:52.630Z,1.33
2023-02-20T22:30:39.027Z,1.65
2023-02-20T22:33:25.481Z,1.65
2023-02-20T22:36:13.096Z,1.77
2023-02-20T22:38:59.477Z,1.50
2023-02-20T22:41:45.801Z,2.00
2023-02-20T22:44:32.197Z,2.15
2023-02-20T22:47:18.275Z,2.28
2023-02-20T22:50:04.398Z,1.73
2023-02-20T22:52:51.863Z,1.92
2023-02-20T22:55:38.401Z,1.65
2023-02-20T22:58:24.729Z,1.77
2023-02-20T23:01:11.593Z,1.60
2023-02-20T23:03:59.012Z,1.60
2023-02-20T23:06:45.884Z,1.38
2023-02-20T23:09:33.270Z,1.70
2023-02-20T23:12:19.531Z,1.50
2023-02-20T23:15:05.460Z,1.73
2023-02-20T23:17:51.772Z,1.58
2023-02-20T23:20:41.821Z,1.80
2023-02-20T23:23:29.797Z,1.75
2023-02-20T23:26:17.958Z,1.23
2023-02-20T23:29:04.584Z,1.38
2023-02-20T23:31:57.141Z,1.80
2023-02-20T23:34:45.244Z,1.60
2023-02-20T23:37:31.741Z,1.80
2023-02-20T23:40:24.013Z,1.70
2023-02-20T23:43:18.356Z,1.67
2023-02-20T23:46:04.688Z,1.38
2023-02-20T23:48:51.009Z,1.60
2023-02-20T23:51:37.384Z,1.60
2023-02-20T23:54:23.792Z,1.73
2023-02-20T23:57:10.176Z,1.80
2023-02-20T23:59:57.705Z,1.60
